Time,TemperatureF,DewpointF,PressureIn,WindDirection,WindDirectionDegrees,WindSpeedMPH,WindSpeedGustMPH,Humidity,HourlyPrecipIn,Conditions,Clouds,dailyrainin,SoftwareType,DateUTC
2013-07-24 00:00:00,70.7,62.8,29.59,SSW,198,4.5,4.5,76,0.00,,---,0.00,VWS V14.01,2013-07-24 04:00:00,
2013-07-24 00:05:00,70.7,62.8,29.62,West,270,0.0,6.3,76,0.00,,---,0.00,VWS V14.01,2013-07-24 04:05:00,
2013-07-24 00:10:00,70.7,62.8,29.62,North,4,0.0,4.9,76,0.00,,---,0.00,VWS V14.01,2013-07-24 04:10:00,
2013-07-24 00:15:00,70.7,62.8,29.62,SSW,200,5.4,7.2,76,0.00,,---,0.00,VWS V14.01,2013-07-24 04:15:00,
2013-07-24 00:20:00,70.7,62.8,29.62,NW,309,0.0,9.4,76,0.00,,---,0.00,VWS V14.01,2013-07-24 04:20:00,
2013-07-24 00:25:00,70.7,62.8,29.62,WNW,298,7.2,10.7,76,0.00,,---,0.00,VWS V14.01,2013-07-24 04:25:00,
2013-07-24 00:30:00,70.7,62.8,29.62,NW,322,0.0,10.3,76,0.00,,---,0.00,VWS V14.01,2013-07-24 04:30:00,
2013-07-24 00:35:00,70.7,62.8,29.62,West,281,0.9,7.6,76,0.00,,---,0.00,VWS V14.01,2013-07-24 04:35:00,
2013-07-24 00:40:00,70.7,62.8,29.62,SW,228,2.2,7.6,76,0.00,,---,0.00,VWS V14.01,2013-07-24 04:40:00,
2013-07-24 00:45:00,70.7,62.8,29.62,WNW,292,2.2,12.5,76,0.00,,---,0.00,VWS V14.01,2013-07-24 04:45:00,
2013-07-24 00:50:00,70.7,62.8,29.62,WSW,254,3.1,7.6,76,0.00,,---,0.00,VWS V14.01,2013-07-24 04:50:00,
2013-07-24 00:55:00,70.7,62.8,29.62,West,273,2.7,9.4,76,0.00,,---,0.00,VWS V14.01,2013-07-24 04:55:00,
2013-07-24 01:00:00,70.7,62.8,29.62,WSW,242,1.3,1.3,76,0.00,,---,0.00,VWS V14.01,2013-07-24 05:00:00,
2013-07-24 01:05:00,70.7,62.8,29.62,WNW,295,2.2,4.9,76,0.00,,---,0.00,VWS V14.01,2013-07-24 05:05:00,
2013-07-24 01:10:00,70.7,62.8,29.62,WNW,297,0.0,2.7,76,0.00,,---,0.00,VWS V14.01,2013-07-24 05:10:00,
2013-07-24 01:15:00,70.7,62.8,29.62,NNW,338,1.8,4.5,76,0.00,,---,0.00,VWS V14.01,2013-07-24 05:15:00,
2013-07-24 01:20:00,70.7,62.8,29.62,West,260,7.6,14.3,76,0.00,,---,0.00,VWS V14.01,2013-07-24 05:20:00,
2013-07-24 01:25:00,70.7,62.8,29.62,West,270,8.1,16.1,76,0.00,,---,0.00,VWS V14.01,2013-07-24 05:25:00,
2013-07-24 01:30:00,70.7,62.8,29.62,NW,322,0.0,10.3,76,0.00,,---,0.00,VWS V14.01,2013-07-24 05:30:00,
2013-07-24 01:35:00,70.7,62.8,29.62,West,281,0.9,7.6,76,0.00,,---,0.00,VWS V14.01,2013-07-24 05:35:00,
2013-07-24 01:40:00,62.2,61.4,29.62,WNW,291,8.1,13.0,97,0.00,,---,0.00,VWS V14.01,2013-07-24 05:40:00,
2013-07-24 01:45:00,70.7,62.8,29.62,West,267,3.1,6.3,76,0.00,,---,0.00,VWS V14.01,2013-07-24 05:45:00,
2013-07-24 01:50:00,70.7,62.8,29.62,WSW,254,3.1,7.6,76,0.00,,---,0.00,VWS V14.01,2013-07-24 05:50:00,
2013-07-24 01:55:00,70.7,62.8,29.62,WSW,242,0.0,7.6,76,0.00,,---,0.00,VWS V14.01,2013-07-24 05:55:00,
2013-07-24 02:00:00,61.9,59.5,29.65,NW,321,6.3,8.9,92,0.00,,---,0.00,VWS V14.01,2013-07-24 06:00:00,
2013-07-24 02:05:00,61.5,59.5,29.65,WNW,295,3.1,8.1,93,0.00,,---,0.00,VWS V14.01,2013-07-24 06:05:00,
2013-07-24 02:10:00,61.3,59.0,29.65,NW,315,8.5,8.5,92,0.00,,---,0.00,VWS V14.01,2013-07-24 06:10:00,
2013-07-24 02:15:00,70.7,62.8,29.62,NW,316,8.9,11.6,76,0.00,,---,0.00,VWS V14.01,2013-07-24 06:15:00,
2013-07-24 02:20:00,61.0,58.6,29.65,NW,314,0.0,3.6,92,0.00,,---,0.00,VWS V14.01,2013-07-24 06:20:00,
2013-07-24 02:25:00,70.7,62.8,29.62,West,270,8.1,16.1,76,0.00,,---,0.00,VWS V14.01,2013-07-24 06:25:00,
2013-07-24 02:30:00,60.6,58.0,29.65,NW,316,4.0,7.2,91,0.00,,---,0.00,VWS V14.01,2013-07-24 06:30:00,
2013-07-24 02:35:00,62.8,61.6,29.62,WNW,298,5.8,11.6,96,0.00,,---,0.00,VWS V14.01,2013-07-24 06:35:00,
2013-07-24 02:40:00,60.4,55.9,29.65,NW,312,1.8,10.7,85,0.00,,---,0.00,VWS V14.01,2013-07-24 06:40:00,
2013-07-24 02:45:00,62.2,61.7,29.65,WNW,284,4.5,10.7,98,0.00,,---,0.00,VWS V14.01,2013-07-24 06:45:00,
2013-07-24 02:50:00,60.1,54.2,29.65,WNW,297,5.8,14.8,81,0.00,,---,0.00,VWS V14.01,2013-07-24 06:50:00,
2013-07-24 02:55:00,59.7,54.6,29.65,NW,319,7.6,12.5,83,0.00,,---,0.00,VWS V14.01,2013-07-24 06:55:00,
2013-07-24 03:00:00,59.7,54.6,29.65,WNW,290,4.9,9.8,83,0.00,,---,0.00,VWS V14.01,2013-07-24 07:00:00,
2013-07-24 03:05:00,61.5,59.5,29.65,WNW,295,3.1,8.1,93,0.00,,---,0.00,VWS V14.01,2013-07-24 07:05:00,
2013-07-24 03:10:00,59.4,54.5,29.65,NNW,328,8.5,8.9,84,0.00,,---,0.00,VWS V14.01,2013-07-24 07:10:00,
2013-07-24 03:15:00,59.5,54.7,29.65,NW,311,4.5,9.4,84,0.00,,---,0.00,VWS V14.01,2013-07-24 07:15:00,
2013-07-24 03:20:00,59.4,54.5,29.65,NNW,336,0.0,4.5,84,0.00,,---,0.00,VWS V14.01,2013-07-24 07:20:00,
2013-07-24 03:25:00,59.4,54.9,29.65,NW,312,6.3,6.3,85,0.00,,---,0.00,VWS V14.01,2013-07-24 07:25:00,
2013-07-24 03:30:00,60.6,58.0,29.65,NW,316,4.0,7.2,91,0.00,,---,0.00,VWS V14.01,2013-07-24 07:30:00,
2013-07-24 03:35:00,59.2,54.4,29.65,North,352,5.4,9.8,84,0.00,,---,0.00,VWS V14.01,2013-07-24 07:35:00,
2013-07-24 03:40:00,59.2,54.7,29.65,North,359,5.4,8.1,85,0.00,,---,0.00,VWS V14.01,2013-07-24 07:40:00,
2013-07-24 03:45:00,60.3,55.1,29.65,NW,319,7.6,16.1,83,0.00,,---,0.00,VWS V14.01,2013-07-24 07:45:00,
2013-07-24 03:50:00,59.2,54.4,29.65,WNW,302,4.5,10.3,84,0.00,,---,0.00,VWS V14.01,2013-07-24 07:50:00,
2013-07-24 03:55:00,59.2,53.7,29.65,NW,308,0.0,9.8,82,0.00,,---,0.00,VWS V14.01,2013-07-24 07:55:00,
2013-07-24 04:00:00,59.7,54.6,29.65,WNW,290,4.9,9.8,83,0.00,,---,0.00,VWS V14.01,2013-07-24 08:00:00,
2013-07-24 04:05:00,59.0,53.8,29.65,NNW,328,8.1,10.3,83,0.00,,---,0.00,VWS V14.01,2013-07-24 08:05:00,
2013-07-24 04:10:00,59.4,54.5,29.65,NNW,328,8.5,8.9,84,0.00,,---,0.00,VWS V14.01,2013-07-24 08:10:00,
2013-07-24 04:15:00,59.0,53.8,29.65,West,281,5.4,8.9,83,0.00,,---,0.00,VWS V14.01,2013-07-24 08:15:00,
2013-07-24 04:20:00,59.0,53.8,29.65,NW,304,12.5,13.9,83,0.00,,---,0.00,VWS V14.01,2013-07-24 08:20:00,
2013-07-24 04:25:00,59.4,54.9,29.65,NW,312,6.3,6.3,85,0.00,,---,0.00,VWS V14.01,2013-07-24 08:25:00,
2013-07-24 04:30:00,59.0,53.8,29.65,NW,305,3.6,10.7,83,0.00,,---,0.00,VWS V14.01,2013-07-24 08:30:00,
2013-07-24 04:35:00,59.2,54.4,29.65,North,352,5.4,9.8,84,0.00,,---,0.00,VWS V14.01,2013-07-24 08:35:00,
2013-07-24 04:40:00,59.0,53.8,29.65,WNW,297,3.1,12.5,83,0.00,,---,0.00,VWS V14.01,2013-07-24 08:40:00,
2013-07-24 04:45:00,59.0,53.8,29.68,West,276,3.6,9.4,83,0.00,,---,0.00,VWS V14.01,2013-07-24 08:45:00,
2013-07-24 04:50:00,59.2,54.4,29.65,WNW,302,4.5,10.3,84,0.00,,---,0.00,VWS V14.01,2013-07-24 08:50:00,
2013-07-24 04:55:00,59.0,53.8,29.68,WSW,249,6.3,8.9,83,0.00,,---,0.00,VWS V14.01,2013-07-24 08:55:00,
2013-07-24 05:00:00,59.0,53.8,29.65,NW,315,6.3,8.1,83,0.00,,---,0.00,VWS V14.01,2013-07-24 09:00:00,
2013-07-24 05:05:00,59.0,53.8,29.68,West,281,5.4,11.6,83,0.00,,---,0.00,VWS V14.01,2013-07-24 09:05:00,
2013-07-24 05:10:00,59.0,53.8,29.68,WNW,285,5.8,10.7,83,0.00,,---,0.00,VWS V14.01,2013-07-24 09:10:00,
2013-07-24 05:15:00,59.0,53.8,29.68,WNW,291,3.1,12.1,83,0.00,,---,0.00,VWS V14.01,2013-07-24 09:15:00,
2013-07-24 05:20:00,59.0,53.8,29.68,WNW,295,10.7,10.7,83,0.00,,---,0.00,VWS V14.01,2013-07-24 09:20:00,
2013-07-24 05:25:00,59.0,53.8,29.65,WNW,294,7.6,13.4,83,0.00,,---,0.00,VWS V14.01,2013-07-24 09:25:00,
2013-07-24 05:30:00,58.6,52.2,29.68,NW,322,3.6,9.4,79,0.00,,---,0.00,VWS V14.01,2013-07-24 09:30:00,
2013-07-24 05:35:00,58.5,52.0,29.68,West,281,0.9,9.4,79,0.00,,---,0.00,VWS V14.01,2013-07-24 09:35:00,
2013-07-24 05:40:00,59.0,53.8,29.65,WNW,297,3.1,12.5,83,0.00,,---,0.00,VWS V14.01,2013-07-24 09:40:00,
2013-07-24 05:45:00,58.6,51.8,29.68,NW,305,6.3,13.4,78,0.00,,---,0.00,VWS V14.01,2013-07-24 09:45:00,
2013-07-24 05:50:00,59.0,53.8,29.68,NNW,328,6.3,8.1,83,0.00,,---,0.00,VWS V14.01,2013-07-24 09:50:00,
2013-07-24 05:55:00,58.5,52.0,29.68,NW,315,8.9,13.9,79,0.00,,---,0.00,VWS V14.01,2013-07-24 09:55:00,
2013-07-24 06:00:00,59.0,53.8,29.68,WNW,288,4.5,11.2,83,0.00,,---,0.00,VWS V14.01,2013-07-24 10:00:00,
2013-07-24 06:05:00,58.3,52.5,29.68,WNW,302,10.3,14.3,81,0.00,,---,0.00,VWS V14.01,2013-07-24 10:05:00,
2013-07-24 06:10:00,58.3,52.5,29.68,NW,311,8.9,15.2,81,0.00,,---,0.00,VWS V14.01,2013-07-24 10:10:00,
2013-07-24 06:15:00,59.0,53.8,29.68,WNW,291,3.1,12.1,83,0.00,,---,0.00,VWS V14.01,2013-07-24 10:15:00,
2013-07-24 06:20:00,58.1,52.3,29.68,NW,323,5.8,10.7,81,0.00,,---,0.00,VWS V14.01,2013-07-24 10:20:00,
2013-07-24 06:25:00,58.1,52.6,29.68,NW,323,10.7,13.0,82,0.00,,---,0.00,VWS V14.01,2013-07-24 10:25:00,
2013-07-24 06:30:00,57.9,52.8,29.68,NW,319,7.6,16.1,83,0.00,,---,0.00,VWS V14.01,2013-07-24 10:30:00,
2013-07-24 06:35:00,58.5,52.0,29.68,West,281,0.9,9.4,79,0.00,,---,0.00,VWS V14.01,2013-07-24 10:35:00,
2013-07-24 06:40:00,57.7,52.6,29.68,NNW,333,9.8,18.3,83,0.00,,---,0.00,VWS V14.01,2013-07-24 10:40:00,
2013-07-24 06:45:00,57.7,53.0,29.68,NW,321,6.3,16.6,84,0.00,,---,0.00,VWS V14.01,2013-07-24 10:45:00,
2013-07-24 06:50:00,57.7,53.0,29.68,West,260,4.9,13.0,84,0.00,,---,0.00,VWS V14.01,2013-07-24 10:50:00,
2013-07-24 06:55:00,58.5,52.0,29.68,NW,315,8.9,13.9,79,0.00,,---,0.00,VWS V14.01,2013-07-24 10:55:00,
2013-07-24 07:00:00,57.6,53.1,29.71,WSW,242,5.4,9.4,85,0.00,,---,0.00,VWS V14.01,2013-07-24 11:00:00,
2013-07-24 07:05:00,57.6,53.1,29.71,NW,311,6.7,15.2,85,0.00,,---,0.00,VWS V14.01,2013-07-24 11:05:00,
2013-07-24 07:10:00,58.3,52.5,29.68,NW,311,8.9,15.2,81,0.00,,---,0.00,VWS V14.01,2013-07-24 11:10:00,
2013-07-24 07:15:00,57.6,53.1,29.71,West,271,10.3,12.5,85,0.00,,---,0.00,VWS V14.01,2013-07-24 11:15:00,
2013-07-24 07:20:00,57.7,53.3,29.71,West,280,7.6,10.3,85,0.00,,---,0.00,VWS V14.01,2013-07-24 11:20:00,
2013-07-24 07:25:00,58.1,53.6,29.71,WNW,298,7.6,11.2,85,0.00,,---,0.00,VWS V14.01,2013-07-24 11:25:00,
2013-07-24 07:30:00,57.9,52.8,29.68,NW,319,7.6,16.1,83,0.00,,---,0.00,VWS V14.01,2013-07-24 11:30:00,
2013-07-24 07:35:00,58.1,53.3,29.71,NW,323,8.5,13.9,84,0.00,,---,0.00,VWS V14.01,2013-07-24 11:35:00,
2013-07-24 07:40:00,57.7,52.6,29.68,NNW,333,9.8,18.3,83,0.00,,---,0.00,VWS V14.01,2013-07-24 11:40:00,
2013-07-24 07:45:00,58.1,53.3,29.71,NW,314,5.4,11.6,84,0.00,,---,0.00,VWS V14.01,2013-07-24 11:45:00,
2013-07-24 07:50:00,57.9,53.4,29.71,NNW,335,6.3,13.9,85,0.00,,---,0.00,VWS V14.01,2013-07-24 11:50:00,
2013-07-24 07:55:00,57.6,52.8,29.68,West,277,4.5,12.1,84,0.00,,---,0.00,VWS V14.01,2013-07-24 11:55:00,
2013-07-24 08:00:00,57.6,53.4,29.71,NW,307,7.6,16.1,86,0.00,,---,0.00,VWS V14.01,2013-07-24 12:00:00,
2013-07-24 08:05:00,57.6,53.1,29.71,NW,311,6.7,15.2,85,0.00,,---,0.00,VWS V14.01,2013-07-24 12:05:00,
2013-07-24 08:10:00,57.4,53.5,29.71,NW,316,11.2,16.1,87,0.00,,---,0.00,VWS V14.01,2013-07-24 12:10:00,
2013-07-24 08:15:00,57.6,53.1,29.71,West,271,10.3,12.5,85,0.00,,---,0.00,VWS V14.01,2013-07-24 12:15:00,
2013-07-24 08:20:00,57.0,53.2,29.74,NW,326,6.7,11.6,87,0.00,,---,0.00,VWS V14.01,2013-07-24 12:20:00,
2013-07-24 08:25:00,58.1,53.6,29.71,WNW,298,7.6,11.2,85,0.00,,---,0.00,VWS V14.01,2013-07-24 12:25:00,
2013-07-24 08:30:00,57.0,53.5,29.74,NNW,330,5.4,10.3,88,0.00,,---,0.00,VWS V14.01,2013-07-24 12:30:00,
2013-07-24 08:35:00,56.7,52.5,29.74,NNW,338,13.9,16.1,86,0.00,,---,0.00,VWS V14.01,2013-07-24 12:35:00,
2013-07-24 08:40:00,56.3,51.9,29.74,NNW,346,7.2,15.7,85,0.00,,---,0.00,VWS V14.01,2013-07-24 12:40:00,
2013-07-24 08:45:00,55.9,51.8,29.77,North,359,4.0,13.9,86,0.00,,---,0.00,VWS V14.01,2013-07-24 12:45:00,
2013-07-24 08:50:00,57.9,53.5,29.71,NNW,335,6.3,13.9,85,0.00,,---,0.00,VWS V14.01,2013-07-24 12:50:00,
2013-07-24 08:55:00,55.4,51.6,29.77,North,360,8.1,12.5,87,0.00,,---,0.00,VWS V14.01,2013-07-24 12:55:00,
2013-07-24 09:00:00,55.2,51.4,29.77,NNW,347,5.4,14.3,87,0.00,,---,0.00,VWS V14.01,2013-07-24 13:00:00,
2013-07-24 09:05:00,55.4,51.6,29.77,NNW,335,11.2,14.3,87,0.00,,---,0.00,VWS V14.01,2013-07-24 13:05:00,
2013-07-24 09:10:00,57.4,53.5,29.71,NW,316,11.2,16.1,87,0.00,,---,0.00,VWS V14.01,2013-07-24 13:10:00,
2013-07-24 09:15:00,55.2,51.4,29.77,North,359,9.4,12.1,87,0.00,,---,0.00,VWS V14.01,2013-07-24 13:15:00,
2013-07-24 09:20:00,57.0,53.2,29.74,NW,326,6.7,11.6,87,0.00,,---,0.00,VWS V14.01,2013-07-24 13:20:00,
2013-07-24 09:25:00,55.2,51.1,29.77,NNW,338,7.2,9.8,86,0.00,,---,0.00,VWS V14.01,2013-07-24 13:25:00,
2013-07-24 09:30:00,57.0,53.5,29.74,NNW,330,5.4,10.3,88,0.00,,---,0.00,VWS V14.01,2013-07-24 13:30:00,
2013-07-24 09:35:00,55.8,51.6,29.77,NW,312,8.5,10.7,86,0.00,,---,0.00,VWS V14.01,2013-07-24 13:35:00,
2013-07-24 09:40:00,56.1,52.0,29.77,NNE,28,4.5,13.0,86,0.00,,---,0.00,VWS V14.01,2013-07-24 13:40:00,
2013-07-24 09:45:00,56.5,51.1,29.80,NNW,343,8.5,8.9,82,0.00,,---,0.00,VWS V14.01,2013-07-24 13:45:00,
2013-07-24 09:50:00,56.3,49.5,29.80,NW,314,1.8,12.5,78,0.00,,---,0.00,VWS V14.01,2013-07-24 13:50:00,
2013-07-24 09:55:00,55.4,51.6,29.77,North,360,8.1,12.5,87,0.00,,---,0.00,VWS V14.01,2013-07-24 13:55:00,
2013-07-24 10:00:00,56.3,49.5,29.80,NW,323,4.9,13.9,78,0.00,,---,0.00,VWS V14.01,2013-07-24 14:00:00,
2013-07-24 10:05:00,55.4,51.6,29.77,NNW,335,11.2,14.3,87,0.00,,---,0.00,VWS V14.01,2013-07-24 14:05:00,
2013-07-24 10:10:00,55.9,49.9,29.80,North,360,9.4,14.3,80,0.00,,---,0.00,VWS V14.01,2013-07-24 14:10:00,
2013-07-24 10:15:00,55.2,51.4,29.77,North,359,9.4,12.1,87,0.00,,---,0.00,VWS V14.01,2013-07-24 14:15:00,
2013-07-24 10:20:00,55.2,49.8,29.80,NW,308,6.7,12.5,82,0.00,,---,0.00,VWS V14.01,2013-07-24 14:20:00,
2013-07-24 10:25:00,55.2,51.1,29.77,NNW,338,7.2,9.8,86,0.00,,---,0.00,VWS V14.01,2013-07-24 14:25:00,
2013-07-24 10:30:00,55.9,50.5,29.80,North,359,6.3,11.6,82,0.00,,---,0.00,VWS V14.01,2013-07-24 14:30:00,
2013-07-24 10:35:00,55.8,51.6,29.77,NW,312,8.5,10.7,86,0.00,,---,0.00,VWS V14.01,2013-07-24 14:35:00,
2013-07-24 10:40:00,57.0,50.2,29.80,WNW,302,15.2,15.2,78,0.00,,---,0.00,VWS V14.01,2013-07-24 14:40:00,
2013-07-24 10:45:00,55.8,50.0,29.80,NW,311,7.2,15.2,81,0.00,,---,0.00,VWS V14.01,2013-07-24 14:45:00,
2013-07-24 10:50:00,55.0,50.6,29.80,NNW,338,8.9,11.6,85,0.00,,---,0.00,VWS V14.01,2013-07-24 14:50:00,
2013-07-24 10:55:00,54.5,50.7,29.80,NW,312,5.8,13.0,87,0.00,,---,0.00,VWS V14.01,2013-07-24 14:55:00,
2013-07-24 11:00:00,54.9,52.0,29.83,NNW,332,12.1,13.4,90,0.00,,---,0.00,VWS V14.01,2013-07-24 15:00:00,
2013-07-24 11:05:00,54.9,52.0,29.83,NNW,338,6.7,13.0,90,0.00,,---,0.00,VWS V14.01,2013-07-24 15:05:00,
2013-07-24 11:10:00,54.3,51.2,29.83,NW,311,10.3,18.3,89,0.00,,---,0.00,VWS V14.01,2013-07-24 15:10:00,
2013-07-24 11:15:00,53.6,50.1,29.83,NNW,332,13.0,18.3,88,0.00,,---,0.00,VWS V14.01,2013-07-24 15:15:00,
2013-07-24 11:20:00,55.2,49.8,29.80,NW,308,6.7,12.5,82,0.00,,---,0.00,VWS V14.01,2013-07-24 15:20:00,
2013-07-24 11:25:00,55.4,51.6,29.83,NNW,328,10.3,16.6,87,0.00,,---,0.00,VWS V14.01,2013-07-24 15:25:00,
2013-07-24 11:30:00,55.9,52.1,29.83,North,360,6.7,15.2,87,0.00,,---,0.00,VWS V14.01,2013-07-24 15:30:00,
2013-07-24 11:35:00,55.6,50.5,29.83,NNW,343,6.7,15.2,83,0.00,,---,0.00,VWS V14.01,2013-07-24 15:35:00,
2013-07-24 11:40:00,57.0,50.2,29.80,WNW,302,15.2,15.2,78,0.00,,---,0.00,VWS V14.01,2013-07-24 15:40:00,
2013-07-24 11:45:00,55.6,50.5,29.83,North,359,5.8,16.1,83,0.00,,---,0.00,VWS V14.01,2013-07-24 15:45:00,
2013-07-24 11:50:00,55.0,50.6,29.80,NNW,338,8.9,11.6,85,0.00,,---,0.00,VWS V14.01,2013-07-24 15:50:00,
2013-07-24 11:55:00,55.6,50.5,29.83,NNW,329,8.9,12.1,83,0.00,,---,0.00,VWS V14.01,2013-07-24 15:55:00,
2013-07-24 12:00:00,54.9,52.0,29.83,NNW,332,12.1,13.4,90,0.00,,---,0.00,VWS V14.01,2013-07-24 16:00:00,
2013-07-24 12:05:00,53.8,49.7,29.85,NW,323,12.1,13.9,86,0.00,,---,0.00,VWS V14.01,2013-07-24 16:05:00,
2013-07-24 12:10:00,54.3,51.2,29.83,NW,311,10.3,18.3,89,0.00,,---,0.00,VWS V14.01,2013-07-24 16:10:00,
2013-07-24 12:15:00,53.6,49.5,29.85,NNE,14,9.4,10.7,86,0.00,,---,0.00,VWS V14.01,2013-07-24 16:15:00,
2013-07-24 12:20:00,53.6,50.1,29.85,North,359,14.3,14.3,88,0.00,,---,0.00,VWS V14.01,2013-07-24 16:20:00,
2013-07-24 12:25:00,53.6,50.1,29.85,North,360,4.9,15.2,88,0.00,,---,0.00,VWS V14.01,2013-07-24 16:25:00,
2013-07-24 12:30:00,55.9,52.1,29.83,North,360,6.7,15.2,87,0.00,,---,0.00,VWS V14.01,2013-07-24 16:30:00,
2013-07-24 12:35:00,53.6,50.1,29.85,North,360,9.4,13.9,88,0.00,,---,0.00,VWS V14.01,2013-07-24 16:35:00,
2013-07-24 12:40:00,55.6,50.5,29.83,NW,305,4.5,10.3,83,0.00,,---,0.00,VWS V14.01,2013-07-24 16:40:00,
2013-07-24 12:45:00,53.6,50.1,29.85,North,359,7.2,12.5,88,0.00,,---,0.00,VWS V14.01,2013-07-24 16:45:00,
2013-07-24 12:50:00,55.6,50.5,29.83,NW,312,10.3,15.2,83,0.00,,---,0.00,VWS V14.01,2013-07-24 16:50:00,
2013-07-24 12:55:00,53.6,50.1,29.85,NNW,340,8.1,10.3,88,0.00,,---,0.00,VWS V14.01,2013-07-24 16:55:00,
2013-07-24 13:00:00,55.6,50.5,29.85,North,350,7.6,10.7,83,0.00,,---,0.00,VWS V14.01,2013-07-24 17:00:00,
2013-07-24 13:05:00,53.6,50.1,29.85,North,350,8.9,11.6,88,0.00,,---,0.00,VWS V14.01,2013-07-24 17:05:00,
2013-07-24 13:10:00,53.6,49.5,29.85,North,359,6.3,12.1,86,0.00,,---,0.00,VWS V14.01,2013-07-24 17:10:00,
2013-07-24 13:15:00,53.6,50.1,29.85,NW,321,5.8,15.7,88,0.00,,---,0.00,VWS V14.01,2013-07-24 17:15:00,
2013-07-24 13:20:00,53.6,50.1,29.85,North,359,14.3,14.3,88,0.00,,---,0.00,VWS V14.01,2013-07-24 17:20:00,
2013-07-24 13:25:00,53.6,50.1,29.85,North,8,6.7,10.7,88,0.00,,---,0.00,VWS V14.01,2013-07-24 17:25:00,
2013-07-24 13:30:00,53.6,50.1,29.85,North,4,5.8,17.9,88,0.00,,---,0.00,VWS V14.01,2013-07-24 17:30:00,
2013-07-24 13:35:00,53.6,50.1,29.85,NNW,333,4.5,13.9,88,0.00,,---,0.00,VWS V14.01,2013-07-24 17:35:00,
2013-07-24 13:40:00,53.6,50.1,29.85,North,349,8.5,13.9,88,0.00,,---,0.00,VWS V14.01,2013-07-24 17:40:00,
2013-07-24 13:45:00,55.8,48.0,29.85,NNW,335,6.7,13.4,75,0.00,,---,0.00,VWS V14.01,2013-07-24 17:45:00,
2013-07-24 13:50:00,53.6,50.1,29.85,NNW,340,6.3,9.4,88,0.00,,---,0.00,VWS V14.01,2013-07-24 17:50:00,
2013-07-24 13:55:00,55.8,48.0,29.85,North,2,5.8,11.6,75,0.00,,---,0.00,VWS V14.01,2013-07-24 17:55:00,
2013-07-24 14:00:00,53.6,50.1,29.85,NNW,347,6.7,12.5,88,0.00,,---,0.00,VWS V14.01,2013-07-24 18:00:00,
2013-07-24 14:05:00,57.0,47.3,29.85,NW,305,8.1,12.1,70,0.00,,---,0.00,VWS V14.01,2013-07-24 18:05:00,
2013-07-24 14:10:00,53.6,50.1,29.85,NW,319,15.7,15.7,88,0.00,,---,0.00,VWS V14.01,2013-07-24 18:10:00,
2013-07-24 14:15:00,57.0,48.1,29.85,WNW,302,7.2,14.3,72,0.00,,---,0.00,VWS V14.01,2013-07-24 18:15:00,
2013-07-24 14:20:00,53.6,50.1,29.85,NW,308,3.6,9.4,88,0.00,,---,0.00,VWS V14.01,2013-07-24 18:20:00,
2013-07-24 14:25:00,58.3,47.8,29.85,North,360,11.2,16.6,68,0.00,,---,0.00,VWS V14.01,2013-07-24 18:25:00,
2013-07-24 14:30:00,53.6,50.1,29.85,North,7,5.4,13.0,88,0.00,,---,0.00,VWS V14.01,2013-07-24 18:30:00,
2013-07-24 14:35:00,57.7,47.3,29.85,NNW,345,12.5,16.1,68,0.00,,---,0.00,VWS V14.01,2013-07-24 18:35:00,
2013-07-24 14:40:00,53.6,50.1,29.85,North,352,9.4,12.5,88,0.00,,---,0.00,VWS V14.01,2013-07-24 18:40:00,
2013-07-24 14:45:00,57.2,46.8,29.85,NNW,339,15.7,16.6,68,0.00,,---,0.00,VWS V14.01,2013-07-24 18:45:00,
2013-07-24 14:50:00,55.8,48.0,29.85,NNW,347,6.7,12.5,75,0.00,,---,0.00,VWS V14.01,2013-07-24 18:50:00,
2013-07-24 14:55:00,57.0,46.2,29.85,NNW,329,11.2,17.4,67,0.00,,---,0.00,VWS V14.01,2013-07-24 18:55:00,
2013-07-24 15:00:00,57.0,47.3,29.85,WNW,301,8.1,13.4,70,0.00,,---,0.00,VWS V14.01,2013-07-24 19:00:00,
2013-07-24 15:05:00,57.7,47.7,29.85,North,353,6.7,10.7,69,0.00,,---,0.00,VWS V14.01,2013-07-24 19:05:00,
2013-07-24 15:10:00,57.0,48.1,29.85,North,359,2.7,13.4,72,0.00,,---,0.00,VWS V14.01,2013-07-24 19:10:00,
2013-07-24 15:15:00,57.2,46.0,29.85,North,349,10.7,14.8,66,0.00,,---,0.00,VWS V14.01,2013-07-24 19:15:00,
2013-07-24 15:20:00,58.3,48.2,29.85,North,359,5.8,10.7,69,0.00,,---,0.00,VWS V14.01,2013-07-24 19:20:00,
2013-07-24 15:25:00,57.4,46.9,29.85,NNW,343,8.5,16.1,68,0.00,,---,0.00,VWS V14.01,2013-07-24 19:25:00,
2013-07-24 15:30:00,57.9,47.4,29.85,NW,314,10.3,12.5,68,0.00,,---,0.00,VWS V14.01,2013-07-24 19:30:00,
2013-07-24 15:35:00,57.7,47.3,29.85,NNW,345,12.5,16.1,68,0.00,,---,0.00,VWS V14.01,2013-07-24 19:35:00,
2013-07-24 15:40:00,57.7,46.9,29.85,NNE,26,8.5,13.0,67,0.00,,---,0.00,VWS V14.01,2013-07-24 19:40:00,
2013-07-24 15:45:00,58.5,47.6,29.85,North,354,13.4,15.7,67,0.00,,---,0.00,VWS V14.01,2013-07-24 19:45:00,
2013-07-24 15:50:00,56.7,45.8,29.85,North,359,7.6,17.0,67,0.00,,---,0.00,VWS V14.01,2013-07-24 19:50:00,
2013-07-24 15:55:00,58.5,47.2,29.85,NNW,342,11.6,13.9,66,0.00,,---,0.00,VWS V14.01,2013-07-24 19:55:00,
2013-07-24 16:00:00,57.0,46.2,29.85,NW,309,9.4,12.5,67,0.00,,---,0.00,VWS V14.01,2013-07-24 20:00:00,
2013-07-24 16:05:00,58.1,47.2,29.88,North,360,10.3,11.2,67,0.00,,---,0.00,VWS V14.01,2013-07-24 20:05:00,
2013-07-24 16:10:00,57.7,46.9,29.85,North,354,8.1,13.4,67,0.00,,---,0.00,VWS V14.01,2013-07-24 20:10:00,
2013-07-24 16:15:00,56.8,46.4,29.88,North,352,9.8,13.4,68,0.00,,---,0.00,VWS V14.01,2013-07-24 20:15:00,
2013-07-24 16:20:00,56.3,45.9,29.88,NW,314,7.6,13.4,68,0.00,,---,0.00,VWS V14.01,2013-07-24 20:20:00,
2013-07-24 16:25:00,56.1,46.5,29.88,NNW,330,9.8,13.0,70,0.00,,---,0.00,VWS V14.01,2013-07-24 20:25:00,
2013-07-24 16:30:00,57.9,47.4,29.88,NW,314,12.5,12.5,68,0.00,,---,0.00,VWS V14.01,2013-07-24 20:30:00,
2013-07-24 16:35:00,56.8,46.8,29.88,NNE,12,8.9,12.5,69,0.00,,---,0.00,VWS V14.01,2013-07-24 20:35:00,
2013-07-24 16:40:00,58.1,46.8,29.88,North,359,15.7,15.7,66,0.00,,---,0.00,VWS V14.01,2013-07-24 20:40:00,
2013-07-24 16:45:00,56.7,45.8,29.88,North,359,5.4,14.3,67,0.00,,---,0.00,VWS V14.01,2013-07-24 20:45:00,
2013-07-24 16:50:00,58.5,47.2,29.85,North,354,8.1,15.7,66,0.00,,---,0.00,VWS V14.01,2013-07-24 20:50:00,
2013-07-24 16:55:00,56.5,45.7,29.88,NW,309,6.7,10.3,67,0.00,,---,0.00,VWS V14.01,2013-07-24 20:55:00,
2013-07-24 17:00:00,58.5,47.2,29.88,NNE,30,8.1,11.6,66,0.00,,---,0.00,VWS V14.01,2013-07-24 21:00:00,
2013-07-24 17:05:00,56.8,46.4,29.88,NW,326,8.9,12.1,68,0.00,,---,0.00,VWS V14.01,2013-07-24 21:05:00,
2013-07-24 17:10:00,56.8,46.0,29.88,North,359,8.5,13.9,67,0.00,,---,0.00,VWS V14.01,2013-07-24 21:10:00,
2013-07-24 17:15:00,56.7,45.4,29.88,NNW,347,5.4,9.4,66,0.00,,---,0.00,VWS V14.01,2013-07-24 21:15:00,
2013-07-24 17:20:00,56.3,45.9,29.88,NW,314,7.6,13.4,68,0.00,,---,0.00,VWS V14.01,2013-07-24 21:20:00,
2013-07-24 17:25:00,56.3,45.5,29.88,NNE,18,6.7,13.0,67,0.00,,---,0.00,VWS V14.01,2013-07-24 21:25:00,
2013-07-24 17:30:00,56.3,45.9,29.88,North,349,10.7,14.3,68,0.00,,---,0.00,VWS V14.01,2013-07-24 21:30:00,
2013-07-24 17:35:00,56.1,45.3,29.88,NNW,330,5.8,10.3,67,0.00,,---,0.00,VWS V14.01,2013-07-24 21:35:00,
2013-07-24 17:40:00,56.7,45.4,29.88,North,359,9.8,12.5,66,0.00,,---,0.00,VWS V14.01,2013-07-24 21:40:00,
2013-07-24 17:45:00,56.1,45.7,29.91,North,8,5.4,12.1,68,0.00,,---,0.00,VWS V14.01,2013-07-24 21:45:00,
2013-07-24 17:50:00,56.7,46.2,29.88,NW,319,4.9,8.5,68,0.00,,---,0.00,VWS V14.01,2013-07-24 21:50:00,
2013-07-24 17:55:00,55.6,44.8,29.91,North,7,6.7,12.5,67,0.00,,---,0.00,VWS V14.01,2013-07-24 21:55:00,
2013-07-24 18:00:00,56.7,47.0,29.88,NNW,342,6.3,8.1,70,0.00,,---,0.00,VWS V14.01,2013-07-24 22:00:00,
2013-07-24 18:05:00,55.6,45.6,29.91,NW,321,4.9,7.6,69,0.00,,---,0.00,VWS V14.01,2013-07-24 22:05:00,
2013-07-24 18:10:00,55.8,45.4,29.91,North,9,9.4,10.3,68,0.00,,---,0.00,VWS V14.01,2013-07-24 22:10:00,
2013-07-24 18:15:00,55.6,44.8,29.91,NNW,347,6.7,12.5,67,0.00,,---,0.00,VWS V14.01,2013-07-24 22:15:00,
2013-07-24 18:20:00,56.5,45.7,29.88,North,357,6.7,13.4,67,0.00,,---,0.00,VWS V14.01,2013-07-24 22:20:00,
2013-07-24 18:25:00,55.6,44.8,29.91,NW,319,1.8,8.1,67,0.00,,---,0.00,VWS V14.01,2013-07-24 22:25:00,
2013-07-24 18:30:00,56.1,45.3,29.88,North,359,4.9,11.6,67,0.00,,---,0.00,VWS V14.01,2013-07-24 22:30:00,
2013-07-24 18:35:00,55.6,45.2,29.91,NNW,340,4.5,7.6,68,0.00,,---,0.00,VWS V14.01,2013-07-24 22:35:00,
2013-07-24 18:40:00,55.9,45.2,29.88,NW,321,3.6,9.8,67,0.00,,---,0.00,VWS V14.01,2013-07-24 22:40:00,
2013-07-24 18:45:00,55.4,45.4,29.91,North,359,4.5,8.5,69,0.00,,---,0.00,VWS V14.01,2013-07-24 22:45:00,
2013-07-24 18:50:00,55.9,45.9,29.91,North,357,11.2,11.2,69,0.00,,---,0.00,VWS V14.01,2013-07-24 22:50:00,
2013-07-24 18:55:00,55.4,45.8,29.91,North,1,2.7,7.2,70,0.00,,---,0.00,VWS V14.01,2013-07-24 22:55:00,
2013-07-24 19:00:00,55.6,45.2,29.91,NNW,329,6.3,9.8,68,0.00,,---,0.00,VWS V14.01,2013-07-24 23:00:00,
2013-07-24 19:05:00,55.4,45.4,29.91,North,350,5.8,8.5,69,0.00,,---,0.00,VWS V14.01,2013-07-24 23:05:00,
2013-07-24 19:10:00,55.8,45.4,29.91,North,9,9.4,10.3,68,0.00,,---,0.00,VWS V14.01,2013-07-24 23:10:00,
2013-07-24 19:15:00,55.2,45.2,29.91,North,4,5.8,8.5,69,0.00,,---,0.00,VWS V14.01,2013-07-24 23:15:00,
2013-07-24 19:20:00,55.6,44.8,29.91,NNE,19,6.3,8.9,67,0.00,,---,0.00,VWS V14.01,2013-07-24 23:20:00,
2013-07-24 19:25:00,55.2,44.9,29.91,North,4,4.5,8.1,68,0.00,,---,0.00,VWS V14.01,2013-07-24 23:25:00,
2013-07-24 19:30:00,55.6,45.2,29.91,North,360,4.9,5.8,68,0.00,,---,0.00,VWS V14.01,2013-07-24 23:30:00,
2013-07-24 19:35:00,54.9,44.5,29.91,NNW,330,6.3,7.2,68,0.00,,---,0.00,VWS V14.01,2013-07-24 23:35:00,
2013-07-24 19:40:00,54.7,44.7,29.91,NNW,329,3.6,6.7,69,0.00,,---,0.00,VWS V14.01,2013-07-24 23:40:00,
2013-07-24 19:45:00,54.5,44.5,29.91,NNW,333,4.0,6.7,69,0.00,,---,0.00,VWS V14.01,2013-07-24 23:45:00,
2013-07-24 19:50:00,55.4,45.8,29.91,North,360,5.4,8.1,70,0.00,,---,0.00,VWS V14.01,2013-07-24 23:50:00,
2013-07-24 19:55:00,54.3,44.4,29.91,NNW,335,5.8,8.1,69,0.00,,---,0.00,VWS V14.01,2013-07-24 23:55:00,
2013-07-24 20:00:00,55.4,45.8,29.91,North,359,2.7,5.4,70,0.00,,---,0.00,VWS V14.01,2013-07-25 00:00:00,
2013-07-24 20:05:00,54.1,44.6,29.91,NW,321,6.7,6.7,70,0.00,,---,0.00,VWS V14.01,2013-07-25 00:05:00,
2013-07-24 20:10:00,55.4,45.4,29.91,NNW,343,5.4,11.2,69,0.00,,---,0.00,VWS V14.01,2013-07-25 00:10:00,
2013-07-24 20:15:00,53.8,45.0,29.94,North,359,0.0,6.3,72,0.00,,---,0.00,VWS V14.01,2013-07-25 00:15:00,
2013-07-24 20:20:00,53.4,45.0,29.94,North,359,0.0,0.0,73,0.00,,---,0.00,VWS V14.01,2013-07-25 00:20:00,
2013-07-24 20:25:00,53.1,45.7,29.94,North,359,0.0,0.0,76,0.00,,---,0.00,VWS V14.01,2013-07-25 00:25:00,
2013-07-24 20:30:00,55.0,44.7,29.91,North,360,7.2,7.2,68,0.00,,---,0.00,VWS V14.01,2013-07-25 00:30:00,
2013-07-24 20:35:00,52.9,45.9,29.94,North,359,0.0,0.0,77,0.00,,---,0.00,VWS V14.01,2013-07-25 00:35:00,
2013-07-24 20:40:00,54.7,44.7,29.91,NNW,329,3.6,6.7,69,0.00,,---,0.00,VWS V14.01,2013-07-25 00:40:00,
2013-07-24 20:45:00,53.1,45.7,29.94,North,359,0.0,0.0,76,0.00,,---,0.00,VWS V14.01,2013-07-25 00:45:00,
2013-07-24 20:50:00,54.5,44.9,29.91,North,359,4.9,7.6,70,0.00,,---,0.00,VWS V14.01,2013-07-25 00:50:00,
2013-07-24 20:55:00,52.9,45.5,29.94,North,359,3.1,3.6,76,0.00,,---,0.00,VWS V14.01,2013-07-25 00:55:00,
2013-07-24 21:00:00,54.3,44.4,29.91,NNW,333,5.4,7.6,69,0.00,,---,0.00,VWS V14.01,2013-07-25 01:00:00,
2013-07-24 21:05:00,52.9,45.5,29.94,North,359,2.2,3.1,76,0.00,,---,0.00,VWS V14.01,2013-07-25 01:05:00,
2013-07-24 21:10:00,52.9,45.5,29.94,North,359,3.1,3.6,76,0.00,,---,0.00,VWS V14.01,2013-07-25 01:10:00,
2013-07-24 21:15:00,52.9,45.5,29.94,North,357,0.0,3.6,76,0.00,,---,0.00,VWS V14.01,2013-07-25 01:15:00,
2013-07-24 21:20:00,53.4,45.0,29.94,North,359,0.0,0.0,73,0.00,,---,0.00,VWS V14.01,2013-07-25 01:20:00,
2013-07-24 21:25:00,52.9,45.9,29.94,North,359,0.0,0.0,77,0.00,,---,0.00,VWS V14.01,2013-07-25 01:25:00,
2013-07-24 21:30:00,52.9,45.5,29.94,North,359,0.0,0.0,76,0.00,,---,0.00,VWS V14.01,2013-07-25 01:30:00,
2013-07-24 21:35:00,52.9,45.9,29.94,North,359,0.0,0.0,77,0.00,,---,0.00,VWS V14.01,2013-07-25 01:35:00,
2013-07-24 21:40:00,53.1,46.0,29.94,North,359,0.0,0.0,77,0.00,,---,0.00,VWS V14.01,2013-07-25 01:40:00,
2013-07-24 21:45:00,52.9,45.9,29.94,North,359,0.0,0.0,77,0.00,,---,0.00,VWS V14.01,2013-07-25 01:45:00,
2013-07-24 21:50:00,52.9,45.9,29.94,North,359,2.2,3.1,77,0.00,,---,0.00,VWS V14.01,2013-07-25 01:50:00,
2013-07-24 21:55:00,49.6,45.3,29.94,North,359,0.0,0.0,85,0.00,,---,0.00,VWS V14.01,2013-07-25 01:55:00,
2013-07-24 22:00:00,52.9,45.5,29.94,North,359,2.2,4.5,76,0.00,,---,0.00,VWS V14.01,2013-07-25 02:00:00,
2013-07-24 22:05:00,49.6,45.3,29.94,North,359,0.0,0.0,85,0.00,,---,0.00,VWS V14.01,2013-07-25 02:05:00,
2013-07-24 22:10:00,49.6,45.3,29.94,North,359,3.1,4.0,85,0.00,,---,0.00,VWS V14.01,2013-07-25 02:10:00,
2013-07-24 22:15:00,49.6,45.3,29.94,North,359,1.8,3.6,85,0.00,,---,0.00,VWS V14.01,2013-07-25 02:15:00,
2013-07-24 22:20:00,49.6,45.3,29.94,North,359,2.2,2.7,85,0.00,,---,0.00,VWS V14.01,2013-07-25 02:20:00,
2013-07-24 22:25:00,49.6,45.3,29.94,North,359,2.7,3.1,85,0.00,,---,0.00,VWS V14.01,2013-07-25 02:25:00,
2013-07-24 22:30:00,48.2,44.2,29.97,North,359,1.3,2.7,86,0.00,,---,0.00,VWS V14.01,2013-07-25 02:30:00,
2013-07-24 22:35:00,52.9,45.9,29.94,North,359,0.0,0.0,77,0.00,,---,0.00,VWS V14.01,2013-07-25 02:35:00,
2013-07-24 22:40:00,48.2,44.2,29.97,North,359,2.2,2.7,86,0.00,,---,0.00,VWS V14.01,2013-07-25 02:40:00,
2013-07-24 22:45:00,48.2,44.2,29.97,North,359,1.3,2.2,86,0.00,,---,0.00,VWS V14.01,2013-07-25 02:45:00,
2013-07-24 22:50:00,48.2,44.2,29.97,North,359,2.7,2.7,86,0.00,,---,0.00,VWS V14.01,2013-07-25 02:50:00,
2013-07-24 22:55:00,49.6,45.3,29.94,North,359,0.0,0.0,85,0.00,,---,0.00,VWS V14.01,2013-07-25 02:55:00,
2013-07-24 23:00:00,48.2,44.2,29.97,North,359,0.0,0.0,86,0.00,,---,0.00,VWS V14.01,2013-07-25 03:00:00,
2013-07-24 23:05:00,49.6,45.3,29.94,North,359,0.0,0.0,85,0.00,,---,0.00,VWS V14.01,2013-07-25 03:05:00,
2013-07-24 23:10:00,49.6,45.3,29.94,North,359,3.1,4.0,85,0.00,,---,0.00,VWS V14.01,2013-07-25 03:10:00,
2013-07-24 23:15:00,45.5,42.7,29.97,North,359,0.0,0.0,90,0.00,,---,0.00,VWS V14.01,2013-07-25 03:15:00,
2013-07-24 23:20:00,45.5,42.7,29.97,North,359,0.0,0.0,90,0.00,,---,0.00,VWS V14.01,2013-07-25 03:20:00,
2013-07-24 23:25:00,49.6,45.3,29.94,North,359,2.7,3.1,85,0.00,,---,0.00,VWS V14.01,2013-07-25 03:25:00,
2013-07-24 23:30:00,45.5,42.7,29.97,North,359,0.0,0.0,90,0.00,,---,0.00,VWS V14.01,2013-07-25 03:30:00,
2013-07-24 23:35:00,48.2,44.2,29.97,North,359,2.2,2.7,86,0.00,,---,0.00,VWS V14.01,2013-07-25 03:35:00,
2013-07-24 23:40:00,45.5,42.7,29.97,North,359,0.0,0.0,90,0.00,,---,0.00,VWS V14.01,2013-07-25 03:40:00,
2013-07-24 23:45:00,45.5,42.7,29.97,North,359,0.0,0.0,90,0.00,,---,0.00,VWS V14.01,2013-07-25 03:45:00,
2013-07-24 23:50:00,45.5,42.7,29.97,North,359,0.0,0.0,90,0.00,,---,0.00,VWS V14.01,2013-07-25 03:50:00,
2013-07-24 23:55:00,45.5,42.7,29.97,North,359,0.0,0.0,90,0.00,,---,0.00,VWS V14.01,2013-07-25 03:55:00,